sensor_id;sensor_type;location;lat;lon;timestamp;temperature;humidity
12922;DHT22;6528;48.086;16.282;2024-01-07T00:01:51;22.30;1.00
12922;DHT22;6528;48.086;16.282;2024-01-07T00:04:18;22.20;1.00
12922;DHT22;6528;48.086;16.282;2024-01-07T00:06:46;22.20;98.30
12922;DHT22;6528;48.086;16.282;2024-01-07T00:09:14;22.20;99.90
12922;DHT22;6528;48.086;16.282;2024-01-07T00:11:41;22.30;99.90
12922;DHT22;6528;48.086;16.282;2024-01-07T00:14:08;22.30;99.90
12922;DHT22;6528;48.086;16.282;2024-01-07T00:16:35;22.30;1.00
12922;DHT22;6528;48.086;16.282;2024-01-07T00:19:02;22.30;1.00
12922;DHT22;6528;48.086;16.282;2024-01-07T00:21:30;22.20;1.00
12922;DHT22;6528;48.086;16.282;2024-01-07T00:23:58;22.30;99.90
12922;DHT22;6528;48.086;16.282;2024-01-07T00:26:25;22.20;1.00
12922;DHT22;6528;48.086;16.282;2024-01-07T00:28:53;22.20;1.00
12922;DHT22;6528;48.086;16.282;2024-01-07T00:31:20;22.20;1.00
12922;DHT22;6528;48.086;16.282;2024-01-07T00:33:47;22.20;1.00
12922;DHT22;6528;48.086;16.282;2024-01-07T00:36:15;22.20;1.00
12922;DHT22;6528;48.086;16.282;2024-01-07T00:38:42;22.20;1.00
12922;DHT22;6528;48.086;16.282;2024-01-07T00:41:10;22.20;1.00
12922;DHT22;6528;48.086;16.282;2024-01-07T00:43:37;22.20;1.00
12922;DHT22;6528;48.086;16.282;2024-01-07T00:46:04;22.20;1.00
12922;DHT22;6528;48.086;16.282;2024-01-07T00:48:32;22.20;1.00
12922;DHT22;6528;48.086;16.282;2024-01-07T00:51:00;22.20;1.00
12922;DHT22;6528;48.086;16.282;2024-01-07T00:53:27;22.20;99.90
12922;DHT22;6528;48.086;16.282;2024-01-07T00:55:54;22.10;99.90
12922;DHT22;6528;48.086;16.282;2024-01-07T00:58:22;22.10;78.20
12922;DHT22;6528;48.086;16.282;2024-01-07T01:00:49;22.10;99.90
12922;DHT22;6528;48.086;16.282;2024-01-07T01:03:17;22.10;1.00
12922;DHT22;6528;48.086;16.282;2024-01-07T01:05:45;22.10;1.00
12922;DHT22;6528;48.086;16.282;2024-01-07T01:08:12;22.10;1.00
12922;DHT22;6528;48.086;16.282;2024-01-07T01:10:40;22.10;1.00
12922;DHT22;6528;48.086;16.282;2024-01-07T01:13:07;22.10;1.00
12922;DHT22;6528;48.086;16.282;2024-01-07T01:15:34;22.00;99.90
12922;DHT22;6528;48.086;16.282;2024-01-07T01:18:02;22.00;99.90
12922;DHT22;6528;48.086;16.282;2024-01-07T01:20:29;22.10;1.00
12922;DHT22;6528;48.086;16.282;2024-01-07T01:22:57;22.10;1.00
12922;DHT22;6528;48.086;16.282;2024-01-07T01:25:24;22.00;1.00
12922;DHT22;6528;48.086;16.282;2024-01-07T01:27:53;22.00;1.00
12922;DHT22;6528;48.086;16.282;2024-01-07T01:30:20;22.00;1.00
12922;DHT22;6528;48.086;16.282;2024-01-07T01:32:48;22.00;1.00
12922;DHT22;6528;48.086;16.282;2024-01-07T01:35:15;22.00;1.00
12922;DHT22;6528;48.086;16.282;2024-01-07T01:37:43;22.00;1.00
12922;DHT22;6528;48.086;16.282;2024-01-07T01:40:11;22.00;1.00
12922;DHT22;6528;48.086;16.282;2024-01-07T01:42:38;22.00;1.00
12922;DHT22;6528;48.086;16.282;2024-01-07T01:45:06;22.00;1.00
12922;DHT22;6528;48.086;16.282;2024-01-07T01:47:33;22.00;1.00
12922;DHT22;6528;48.086;16.282;2024-01-07T01:50:01;21.90;1.00
12922;DHT22;6528;48.086;16.282;2024-01-07T01:52:29;21.90;1.00
12922;DHT22;6528;48.086;16.282;2024-01-07T01:54:56;22.00;1.00
12922;DHT22;6528;48.086;16.282;2024-01-07T01:57:32;21.90;1.00
12922;DHT22;6528;48.086;16.282;2024-01-07T02:00:03;21.90;1.00
12922;DHT22;6528;48.086;16.282;2024-01-07T02:02:32;21.90;1.00
12922;DHT22;6528;48.086;16.282;2024-01-07T02:05:02;21.90;1.00
12922;DHT22;6528;48.086;16.282;2024-01-07T02:07:31;21.90;1.00
12922;DHT22;6528;48.086;16.282;2024-01-07T02:09:59;21.90;1.00
12922;DHT22;6528;48.086;16.282;2024-01-07T02:12:27;21.90;1.00
12922;DHT22;6528;48.086;16.282;2024-01-07T02:14:54;21.90;1.00
12922;DHT22;6528;48.086;16.282;2024-01-07T02:17:22;21.90;1.00
12922;DHT22;6528;48.086;16.282;2024-01-07T02:19:49;21.90;1.00
12922;DHT22;6528;48.086;16.282;2024-01-07T02:22:17;21.90;1.00
12922;DHT22;6528;48.086;16.282;2024-01-07T02:24:46;21.90;1.00
12922;DHT22;6528;48.086;16.282;2024-01-07T02:27:13;21.90;1.00
12922;DHT22;6528;48.086;16.282;2024-01-07T02:29:41;21.90;1.00
12922;DHT22;6528;48.086;16.282;2024-01-07T02:32:08;21.90;1.00
12922;DHT22;6528;48.086;16.282;2024-01-07T02:34:35;21.90;1.00
12922;DHT22;6528;48.086;16.282;2024-01-07T02:37:03;21.80;1.00
12922;DHT22;6528;48.086;16.282;2024-01-07T02:39:31;21.90;1.00
12922;DHT22;6528;48.086;16.282;2024-01-07T02:41:58;21.90;1.00
12922;DHT22;6528;48.086;16.282;2024-01-07T02:44:26;21.90;1.00
12922;DHT22;6528;48.086;16.282;2024-01-07T02:46:53;21.90;1.00
12922;DHT22;6528;48.086;16.282;2024-01-07T02:49:20;21.80;1.00
12922;DHT22;6528;48.086;16.282;2024-01-07T02:51:47;21.80;1.00
12922;DHT22;6528;48.086;16.282;2024-01-07T02:54:16;21.90;1.00
12922;DHT22;6528;48.086;16.282;2024-01-07T02:56:44;21.80;1.00
12922;DHT22;6528;48.086;16.282;2024-01-07T02:59:11;21.80;1.00
12922;DHT22;6528;48.086;16.282;2024-01-07T03:01:38;21.90;1.00
12922;DHT22;6528;48.086;16.282;2024-01-07T03:04:11;21.80;1.00
12922;DHT22;6528;48.086;16.282;2024-01-07T03:06:39;21.80;1.00
12922;DHT22;6528;48.086;16.282;2024-01-07T03:09:07;21.80;1.00
12922;DHT22;6528;48.086;16.282;2024-01-07T03:11:39;21.80;1.00
12922;DHT22;6528;48.086;16.282;2024-01-07T03:14:07;21.80;1.00
12922;DHT22;6528;48.086;16.282;2024-01-07T03:16:34;21.80;1.00
12922;DHT22;6528;48.086;16.282;2024-01-07T03:19:01;21.80;1.00
12922;DHT22;6528;48.086;16.282;2024-01-07T03:21:32;21.80;1.00
12922;DHT22;6528;48.086;16.282;2024-01-07T03:23:59;21.80;1.00
12922;DHT22;6528;48.086;16.282;2024-01-07T03:26:29;21.80;1.00
12922;DHT22;6528;48.086;16.282;2024-01-07T03:28:59;21.80;1.00
12922;DHT22;6528;48.086;16.282;2024-01-07T03:31:28;21.80;1.00
12922;DHT22;6528;48.086;16.282;2024-01-07T03:33:56;21.80;1.00
12922;DHT22;6528;48.086;16.282;2024-01-07T03:36:24;21.80;1.00
12922;DHT22;6528;48.086;16.282;2024-01-07T03:38:52;21.80;1.00
12922;DHT22;6528;48.086;16.282;2024-01-07T03:41:21;21.80;1.00
12922;DHT22;6528;48.086;16.282;2024-01-07T03:43:49;21.80;1.00
12922;DHT22;6528;48.086;16.282;2024-01-07T03:46:17;21.80;1.00
12922;DHT22;6528;48.086;16.282;2024-01-07T03:48:45;21.80;1.00
12922;DHT22;6528;48.086;16.282;2024-01-07T03:51:13;21.80;1.00
12922;DHT22;6528;48.086;16.282;2024-01-07T03:53:40;21.80;1.00
12922;DHT22;6528;48.086;16.282;2024-01-07T03:56:08;21.80;1.00
12922;DHT22;6528;48.086;16.282;2024-01-07T03:58:35;21.80;1.00
12922;DHT22;6528;48.086;16.282;2024-01-07T04:01:02;21.80;1.00
12922;DHT22;6528;48.086;16.282;2024-01-07T04:03:30;21.80;1.00
12922;DHT22;6528;48.086;16.282;2024-01-07T04:05:58;21.80;1.00
12922;DHT22;6528;48.086;16.282;2024-01-07T04:08:25;21.80;1.00
12922;DHT22;6528;48.086;16.282;2024-01-07T04:10:53;21.80;1.00
12922;DHT22;6528;48.086;16.282;2024-01-07T04:13:20;21.70;1.00
12922;DHT22;6528;48.086;16.282;2024-01-07T04:15:47;21.80;1.00
12922;DHT22;6528;48.086;16.282;2024-01-07T04:18:15;21.70;1.00
12922;DHT22;6528;48.086;16.282;2024-01-07T04:20:42;21.80;1.00
12922;DHT22;6528;48.086;16.282;2024-01-07T04:23:09;21.80;1.00
12922;DHT22;6528;48.086;16.282;2024-01-07T04:25:37;21.80;1.00
12922;DHT22;6528;48.086;16.282;2024-01-07T04:28:05;21.70;1.00
12922;DHT22;6528;48.086;16.282;2024-01-07T04:30:32;21.80;1.00
12922;DHT22;6528;48.086;16.282;2024-01-07T04:32:59;21.80;1.00
12922;DHT22;6528;48.086;16.282;2024-01-07T04:35:27;21.80;1.00
12922;DHT22;6528;48.086;16.282;2024-01-07T04:37:54;21.80;1.00
12922;DHT22;6528;48.086;16.282;2024-01-07T04:40:22;21.80;1.00
12922;DHT22;6528;48.086;16.282;2024-01-07T04:42:49;21.70;1.00
12922;DHT22;6528;48.086;16.282;2024-01-07T04:45:17;21.70;1.00
12922;DHT22;6528;48.086;16.282;2024-01-07T04:47:44;21.70;1.00
12922;DHT22;6528;48.086;16.282;2024-01-07T04:50:12;21.70;1.00
12922;DHT22;6528;48.086;16.282;2024-01-07T04:52:42;21.70;1.00
12922;DHT22;6528;48.086;16.282;2024-01-07T04:55:09;21.70;1.00
12922;DHT22;6528;48.086;16.282;2024-01-07T04:57:37;21.70;1.00
12922;DHT22;6528;48.086;16.282;2024-01-07T05:00:05;21.70;1.00
12922;DHT22;6528;48.086;16.282;2024-01-07T05:02:32;21.70;99.90
12922;DHT22;6528;48.086;16.282;2024-01-07T05:05:00;21.70;1.00
12922;DHT22;6528;48.086;16.282;2024-01-07T05:07:27;21.70;1.00
12922;DHT22;6528;48.086;16.282;2024-01-07T05:09:54;21.70;99.90
12922;DHT22;6528;48.086;16.282;2024-01-07T05:12:22;21.70;1.00
12922;DHT22;6528;48.086;16.282;2024-01-07T05:14:51;21.70;1.00
12922;DHT22;6528;48.086;16.282;2024-01-07T05:17:19;21.70;1.00
12922;DHT22;6528;48.086;16.282;2024-01-07T05:19:46;21.70;1.00
12922;DHT22;6528;48.086;16.282;2024-01-07T05:22:14;21.70;1.00
12922;DHT22;6528;48.086;16.282;2024-01-07T05:24:42;21.70;1.00
12922;DHT22;6528;48.086;16.282;2024-01-07T05:27:09;21.70;1.00
12922;DHT22;6528;48.086;16.282;2024-01-07T05:29:36;21.70;1.00
12922;DHT22;6528;48.086;16.282;2024-01-07T05:32:04;21.70;1.00
12922;DHT22;6528;48.086;16.282;2024-01-07T05:34:32;21.70;1.00
12922;DHT22;6528;48.086;16.282;2024-01-07T05:36:59;21.70;1.00
12922;DHT22;6528;48.086;16.282;2024-01-07T05:39:27;21.70;1.00
12922;DHT22;6528;48.086;16.282;2024-01-07T05:41:54;21.70;99.90
12922;DHT22;6528;48.086;16.282;2024-01-07T05:44:22;21.70;1.00
12922;DHT22;6528;48.086;16.282;2024-01-07T05:46:52;21.70;1.00
12922;DHT22;6528;48.086;16.282;2024-01-07T05:49:19;21.70;1.00
12922;DHT22;6528;48.086;16.282;2024-01-07T05:51:47;21.70;99.90
12922;DHT22;6528;48.086;16.282;2024-01-07T05:54:14;21.70;1.00
12922;DHT22;6528;48.086;16.282;2024-01-07T05:56:41;21.70;1.00
12922;DHT22;6528;48.086;16.282;2024-01-07T05:59:09;21.70;1.00
12922;DHT22;6528;48.086;16.282;2024-01-07T06:01:36;21.70;1.00
12922;DHT22;6528;48.086;16.282;2024-01-07T06:04:04;21.70;99.90
12922;DHT22;6528;48.086;16.282;2024-01-07T06:06:31;21.70;1.00
12922;DHT22;6528;48.086;16.282;2024-01-07T06:09:01;21.70;1.00
12922;DHT22;6528;48.086;16.282;2024-01-07T06:11:29;21.70;1.00
12922;DHT22;6528;48.086;16.282;2024-01-07T06:13:56;21.70;1.00
12922;DHT22;6528;48.086;16.282;2024-01-07T06:16:23;21.70;1.00
12922;DHT22;6528;48.086;16.282;2024-01-07T06:18:51;21.70;1.00
12922;DHT22;6528;48.086;16.282;2024-01-07T06:21:19;21.70;1.00
12922;DHT22;6528;48.086;16.282;2024-01-07T06:23:46;21.70;1.00
12922;DHT22;6528;48.086;16.282;2024-01-07T06:26:15;21.70;1.00
12922;DHT22;6528;48.086;16.282;2024-01-07T06:28:42;21.70;1.00
12922;DHT22;6528;48.086;16.282;2024-01-07T06:31:09;21.70;1.00
12922;DHT22;6528;48.086;16.282;2024-01-07T06:33:37;21.70;1.00
12922;DHT22;6528;48.086;16.282;2024-01-07T06:36:05;21.70;1.00
12922;DHT22;6528;48.086;16.282;2024-01-07T06:38:33;21.60;1.00
12922;DHT22;6528;48.086;16.282;2024-01-07T06:41:01;21.70;1.00
12922;DHT22;6528;48.086;16.282;2024-01-07T06:43:31;21.70;1.00
12922;DHT22;6528;48.086;16.282;2024-01-07T06:45:59;21.70;1.00
12922;DHT22;6528;48.086;16.282;2024-01-07T06:48:26;21.70;1.00
12922;DHT22;6528;48.086;16.282;2024-01-07T06:50:54;21.60;1.00
12922;DHT22;6528;48.086;16.282;2024-01-07T06:53:21;21.70;1.00
12922;DHT22;6528;48.086;16.282;2024-01-07T06:55:49;21.70;1.00
12922;DHT22;6528;48.086;16.282;2024-01-07T06:58:16;21.60;1.00
12922;DHT22;6528;48.086;16.282;2024-01-07T07:00:43;21.70;1.00
12922;DHT22;6528;48.086;16.282;2024-01-07T07:03:11;21.60;1.00
12922;DHT22;6528;48.086;16.282;2024-01-07T07:05:38;21.60;1.00
12922;DHT22;6528;48.086;16.282;2024-01-07T07:08:06;21.60;1.00
12922;DHT22;6528;48.086;16.282;2024-01-07T07:10:33;21.60;1.00
12922;DHT22;6528;48.086;16.282;2024-01-07T07:13:01;21.70;1.00
12922;DHT22;6528;48.086;16.282;2024-01-07T07:15:29;21.70;99.90
12922;DHT22;6528;48.086;16.282;2024-01-07T07:17:56;21.60;1.00
12922;DHT22;6528;48.086;16.282;2024-01-07T07:20:24;21.60;1.00
12922;DHT22;6528;48.086;16.282;2024-01-07T07:22:52;21.60;1.00
12922;DHT22;6528;48.086;16.282;2024-01-07T07:25:19;21.60;1.00
12922;DHT22;6528;48.086;16.282;2024-01-07T07:27:47;21.60;1.00
12922;DHT22;6528;48.086;16.282;2024-01-07T07:30:14;21.60;1.00
12922;DHT22;6528;48.086;16.282;2024-01-07T07:32:41;21.60;1.00
12922;DHT22;6528;48.086;16.282;2024-01-07T07:35:09;21.60;1.00
12922;DHT22;6528;48.086;16.282;2024-01-07T07:37:37;21.60;1.00
12922;DHT22;6528;48.086;16.282;2024-01-07T07:40:05;21.60;1.00
12922;DHT22;6528;48.086;16.282;2024-01-07T07:42:33;21.60;1.00
12922;DHT22;6528;48.086;16.282;2024-01-07T07:45:00;21.60;1.00
12922;DHT22;6528;48.086;16.282;2024-01-07T07:47:29;21.60;1.00
12922;DHT22;6528;48.086;16.282;2024-01-07T07:49:57;21.60;1.00
12922;DHT22;6528;48.086;16.282;2024-01-07T07:52:24;21.60;99.90
12922;DHT22;6528;48.086;16.282;2024-01-07T07:54:53;21.60;1.00
12922;DHT22;6528;48.086;16.282;2024-01-07T07:57:21;21.60;1.00
12922;DHT22;6528;48.086;16.282;2024-01-07T07:59:48;21.60;1.00
12922;DHT22;6528;48.086;16.282;2024-01-07T08:02:16;21.60;1.00
12922;DHT22;6528;48.086;16.282;2024-01-07T08:04:44;21.60;1.00
12922;DHT22;6528;48.086;16.282;2024-01-07T08:07:11;21.60;1.00
12922;DHT22;6528;48.086;16.282;2024-01-07T08:09:39;21.60;1.00
12922;DHT22;6528;48.086;16.282;2024-01-07T08:12:07;21.60;1.00
12922;DHT22;6528;48.086;16.282;2024-01-07T08:14:34;21.60;1.00
12922;DHT22;6528;48.086;16.282;2024-01-07T08:17:03;21.60;99.90
12922;DHT22;6528;48.086;16.282;2024-01-07T08:19:32;21.60;1.00
12922;DHT22;6528;48.086;16.282;2024-01-07T08:21:59;21.60;1.00
12922;DHT22;6528;48.086;16.282;2024-01-07T08:24:26;21.60;1.00
12922;DHT22;6528;48.086;16.282;2024-01-07T08:26:54;21.60;1.00
12922;DHT22;6528;48.086;16.282;2024-01-07T08:29:22;21.60;99.90
12922;DHT22;6528;48.086;16.282;2024-01-07T08:31:49;21.60;1.00
12922;DHT22;6528;48.086;16.282;2024-01-07T08:34:17;21.60;1.00
12922;DHT22;6528;48.086;16.282;2024-01-07T08:36:44;21.60;1.00
12922;DHT22;6528;48.086;16.282;2024-01-07T08:39:14;21.60;1.00
12922;DHT22;6528;48.086;16.282;2024-01-07T08:41:41;21.60;1.00
12922;DHT22;6528;48.086;16.282;2024-01-07T08:44:08;21.60;1.00
12922;DHT22;6528;48.086;16.282;2024-01-07T08:46:35;21.60;1.00
12922;DHT22;6528;48.086;16.282;2024-01-07T08:49:03;21.60;1.00
12922;DHT22;6528;48.086;16.282;2024-01-07T08:51:31;21.60;1.00
12922;DHT22;6528;48.086;16.282;2024-01-07T08:53:58;21.60;1.00
12922;DHT22;6528;48.086;16.282;2024-01-07T08:56:26;21.60;99.90
12922;DHT22;6528;48.086;16.282;2024-01-07T08:58:53;21.60;1.00
12922;DHT22;6528;48.086;16.282;2024-01-07T09:01:21;21.60;99.90
12922;DHT22;6528;48.086;16.282;2024-01-07T09:03:48;21.60;99.90
12922;DHT22;6528;48.086;16.282;2024-01-07T09:06:16;21.60;1.00
12922;DHT22;6528;48.086;16.282;2024-01-07T09:08:43;21.60;1.00
12922;DHT22;6528;48.086;16.282;2024-01-07T09:11:10;21.60;99.90
12922;DHT22;6528;48.086;16.282;2024-01-07T09:13:39;21.60;1.00
12922;DHT22;6528;48.086;16.282;2024-01-07T09:16:10;21.60;1.00
12922;DHT22;6528;48.086;16.282;2024-01-07T09:18:39;21.70;99.90
12922;DHT22;6528;48.086;16.282;2024-01-07T09:21:06;21.70;1.00
12922;DHT22;6528;48.086;16.282;2024-01-07T09:23:33;21.70;1.00
12922;DHT22;6528;48.086;16.282;2024-01-07T09:26:02;21.70;99.90
12922;DHT22;6528;48.086;16.282;2024-01-07T09:28:30;21.70;99.90
12922;DHT22;6528;48.086;16.282;2024-01-07T09:30:57;21.70;99.90
12922;DHT22;6528;48.086;16.282;2024-01-07T09:33:24;21.70;99.90
12922;DHT22;6528;48.086;16.282;2024-01-07T09:35:51;21.70;99.90
12922;DHT22;6528;48.086;16.282;2024-01-07T09:38:21;21.80;1.00
12922;DHT22;6528;48.086;16.282;2024-01-07T09:40:49;21.80;99.90
12922;DHT22;6528;48.086;16.282;2024-01-07T09:43:16;21.80;99.90
12922;DHT22;6528;48.086;16.282;2024-01-07T09:45:46;21.80;99.90
12922;DHT22;6528;48.086;16.282;2024-01-07T09:48:14;21.80;99.90
12922;DHT22;6528;48.086;16.282;2024-01-07T09:50:42;21.90;99.90
12922;DHT22;6528;48.086;16.282;2024-01-07T09:53:15;21.90;99.90
12922;DHT22;6528;48.086;16.282;2024-01-07T09:56:22;21.90;99.90
12922;DHT22;6528;48.086;16.282;2024-01-07T09:58:51;21.90;99.90
12922;DHT22;6528;48.086;16.282;2024-01-07T10:01:19;21.90;99.90
12922;DHT22;6528;48.086;16.282;2024-01-07T10:03:46;21.90;99.90
12922;DHT22;6528;48.086;16.282;2024-01-07T10:06:13;21.90;99.90
12922;DHT22;6528;48.086;16.282;2024-01-07T10:08:40;21.90;99.90
12922;DHT22;6528;48.086;16.282;2024-01-07T10:11:08;21.90;99.90
12922;DHT22;6528;48.086;16.282;2024-01-07T10:13:36;22.00;99.90
12922;DHT22;6528;48.086;16.282;2024-01-07T10:16:03;21.90;99.90
12922;DHT22;6528;48.086;16.282;2024-01-07T10:18:31;22.00;99.90
12922;DHT22;6528;48.086;16.282;2024-01-07T10:21:06;22.00;99.90
12922;DHT22;6528;48.086;16.282;2024-01-07T10:23:34;22.00;99.90
12922;DHT22;6528;48.086;16.282;2024-01-07T10:26:01;22.00;99.90
12922;DHT22;6528;48.086;16.282;2024-01-07T10:28:41;22.00;99.90
12922;DHT22;6528;48.086;16.282;2024-01-07T10:31:10;22.00;99.90
12922;DHT22;6528;48.086;16.282;2024-01-07T10:33:37;22.10;1.00
12922;DHT22;6528;48.086;16.282;2024-01-07T10:36:06;22.00;1.00
12922;DHT22;6528;48.086;16.282;2024-01-07T10:38:33;22.00;1.00
12922;DHT22;6528;48.086;16.282;2024-01-07T10:41:05;22.10;1.00
12922;DHT22;6528;48.086;16.282;2024-01-07T10:43:34;22.00;1.00
12922;DHT22;6528;48.086;16.282;2024-01-07T10:46:03;22.00;1.00
12922;DHT22;6528;48.086;16.282;2024-01-07T10:48:32;22.00;1.00
12922;DHT22;6528;48.086;16.282;2024-01-07T10:51:03;22.00;1.00
12922;DHT22;6528;48.086;16.282;2024-01-07T10:53:34;22.00;1.00
12922;DHT22;6528;48.086;16.282;2024-01-07T10:56:08;22.00;1.00
12922;DHT22;6528;48.086;16.282;2024-01-07T10:58:39;22.00;1.00
12922;DHT22;6528;48.086;16.282;2024-01-07T11:01:07;22.10;1.00
12922;DHT22;6528;48.086;16.282;2024-01-07T11:06:18;22.10;1.00
12922;DHT22;6528;48.086;16.282;2024-01-07T11:08:55;22.10;1.00
12922;DHT22;6528;48.086;16.282;2024-01-07T11:11:36;22.10;1.00
12922;DHT22;6528;48.086;16.282;2024-01-07T11:16:59;22.10;1.00
12922;DHT22;6528;48.086;16.282;2024-01-07T11:19:26;22.00;1.00
12922;DHT22;6528;48.086;16.282;2024-01-07T11:22:23;22.10;1.00
12922;DHT22;6528;48.086;16.282;2024-01-07T11:24:52;22.10;1.00
12922;DHT22;6528;48.086;16.282;2024-01-07T11:27:21;22.10;1.00
12922;DHT22;6528;48.086;16.282;2024-01-07T11:30:02;22.10;1.00
12922;DHT22;6528;48.086;16.282;2024-01-07T11:32:33;22.00;1.00
12922;DHT22;6528;48.086;16.282;2024-01-07T11:35:01;22.00;1.00
12922;DHT22;6528;48.086;16.282;2024-01-07T11:37:30;22.00;1.00
12922;DHT22;6528;48.086;16.282;2024-01-07T11:39:57;22.00;1.00
12922;DHT22;6528;48.086;16.282;2024-01-07T11:42:25;22.00;1.00
12922;DHT22;6528;48.086;16.282;2024-01-07T11:44:54;22.00;1.00
12922;DHT22;6528;48.086;16.282;2024-01-07T11:47:22;22.00;1.00
12922;DHT22;6528;48.086;16.282;2024-01-07T11:49:50;22.00;1.00
12922;DHT22;6528;48.086;16.282;2024-01-07T11:52:17;22.00;1.00
12922;DHT22;6528;48.086;16.282;2024-01-07T11:54:45;22.00;1.00
12922;DHT22;6528;48.086;16.282;2024-01-07T11:57:13;22.00;1.00
12922;DHT22;6528;48.086;16.282;2024-01-07T11:59:40;22.00;1.00
12922;DHT22;6528;48.086;16.282;2024-01-07T12:02:11;22.00;1.00
12922;DHT22;6528;48.086;16.282;2024-01-07T12:04:38;22.00;1.00
12922;DHT22;6528;48.086;16.282;2024-01-07T12:07:05;22.00;1.00
12922;DHT22;6528;48.086;16.282;2024-01-07T12:09:33;22.10;1.00
12922;DHT22;6528;48.086;16.282;2024-01-07T12:12:00;22.00;1.00
12922;DHT22;6528;48.086;16.282;2024-01-07T12:14:28;22.10;1.00
12922;DHT22;6528;48.086;16.282;2024-01-07T12:16:55;22.00;1.00
12922;DHT22;6528;48.086;16.282;2024-01-07T12:19:22;22.00;1.00
12922;DHT22;6528;48.086;16.282;2024-01-07T12:22:02;22.00;1.00
12922;DHT22;6528;48.086;16.282;2024-01-07T12:24:30;22.10;1.00
12922;DHT22;6528;48.086;16.282;2024-01-07T12:27:04;22.00;1.00
12922;DHT22;6528;48.086;16.282;2024-01-07T12:29:31;22.00;1.00
12922;DHT22;6528;48.086;16.282;2024-01-07T12:31:59;22.00;1.00
12922;DHT22;6528;48.086;16.282;2024-01-07T12:34:26;22.00;1.00
12922;DHT22;6528;48.086;16.282;2024-01-07T12:36:54;22.00;1.00
12922;DHT22;6528;48.086;16.282;2024-01-07T12:39:22;22.10;1.00
12922;DHT22;6528;48.086;16.282;2024-01-07T12:41:54;22.00;1.00
12922;DHT22;6528;48.086;16.282;2024-01-07T12:44:20;22.00;1.00
12922;DHT22;6528;48.086;16.282;2024-01-07T12:46:47;22.10;1.00
12922;DHT22;6528;48.086;16.282;2024-01-07T12:49:18;22.00;1.00
12922;DHT22;6528;48.086;16.282;2024-01-07T12:51:45;22.10;1.00
12922;DHT22;6528;48.086;16.282;2024-01-07T12:54:12;22.00;1.00
12922;DHT22;6528;48.086;16.282;2024-01-07T12:56:39;22.00;1.00
12922;DHT22;6528;48.086;16.282;2024-01-07T12:59:06;22.10;1.00
12922;DHT22;6528;48.086;16.282;2024-01-07T13:01:33;22.10;99.90
12922;DHT22;6528;48.086;16.282;2024-01-07T13:04:03;22.10;1.00
12922;DHT22;6528;48.086;16.282;2024-01-07T13:06:30;22.10;1.00
12922;DHT22;6528;48.086;16.282;2024-01-07T13:08:57;22.00;1.00
12922;DHT22;6528;48.086;16.282;2024-01-07T13:11:27;22.10;1.00
12922;DHT22;6528;48.086;16.282;2024-01-07T13:13:54;22.00;1.00
12922;DHT22;6528;48.086;16.282;2024-01-07T13:16:25;22.10;1.00
12922;DHT22;6528;48.086;16.282;2024-01-07T13:18:53;22.10;1.00
12922;DHT22;6528;48.086;16.282;2024-01-07T13:21:20;22.10;1.00
12922;DHT22;6528;48.086;16.282;2024-01-07T13:23:47;22.00;1.00
12922;DHT22;6528;48.086;16.282;2024-01-07T13:26:16;22.00;1.00
12922;DHT22;6528;48.086;16.282;2024-01-07T13:28:43;22.00;1.00
12922;DHT22;6528;48.086;16.282;2024-01-07T13:31:10;21.90;1.00
12922;DHT22;6528;48.086;16.282;2024-01-07T13:33:40;22.00;1.00
12922;DHT22;6528;48.086;16.282;2024-01-07T13:36:07;21.90;1.00
12922;DHT22;6528;48.086;16.282;2024-01-07T13:38:37;22.00;1.00
12922;DHT22;6528;48.086;16.282;2024-01-07T13:41:10;22.00;1.00
12922;DHT22;6528;48.086;16.282;2024-01-07T13:43:37;22.00;1.00
12922;DHT22;6528;48.086;16.282;2024-01-07T13:46:07;22.00;1.00
12922;DHT22;6528;48.086;16.282;2024-01-07T13:48:35;22.00;1.00
12922;DHT22;6528;48.086;16.282;2024-01-07T13:51:02;22.00;1.00
12922;DHT22;6528;48.086;16.282;2024-01-07T13:53:30;22.00;1.00
12922;DHT22;6528;48.086;16.282;2024-01-07T13:55:58;22.00;1.00
12922;DHT22;6528;48.086;16.282;2024-01-07T13:58:25;22.00;1.00
12922;DHT22;6528;48.086;16.282;2024-01-07T14:00:52;21.90;1.00
12922;DHT22;6528;48.086;16.282;2024-01-07T14:03:19;21.90;1.00
12922;DHT22;6528;48.086;16.282;2024-01-07T14:05:47;21.90;1.00
12922;DHT22;6528;48.086;16.282;2024-01-07T14:08:14;21.90;1.00
12922;DHT22;6528;48.086;16.282;2024-01-07T14:10:42;21.90;1.00
12922;DHT22;6528;48.086;16.282;2024-01-07T14:13:09;21.90;1.00
12922;DHT22;6528;48.086;16.282;2024-01-07T14:15:36;21.90;1.00
12922;DHT22;6528;48.086;16.282;2024-01-07T14:18:04;21.90;1.00
12922;DHT22;6528;48.086;16.282;2024-01-07T14:20:31;21.80;1.00
12922;DHT22;6528;48.086;16.282;2024-01-07T14:22:58;21.80;1.00
12922;DHT22;6528;48.086;16.282;2024-01-07T14:25:26;21.80;1.00
12922;DHT22;6528;48.086;16.282;2024-01-07T14:27:53;21.80;1.00
12922;DHT22;6528;48.086;16.282;2024-01-07T14:30:20;21.90;1.00
12922;DHT22;6528;48.086;16.282;2024-01-07T14:32:48;21.90;1.00
12922;DHT22;6528;48.086;16.282;2024-01-07T14:35:15;21.90;1.00
12922;DHT22;6528;48.086;16.282;2024-01-07T14:37:42;21.90;1.00
12922;DHT22;6528;48.086;16.282;2024-01-07T14:40:10;21.90;1.00
12922;DHT22;6528;48.086;16.282;2024-01-07T14:42:37;21.90;1.00
12922;DHT22;6528;48.086;16.282;2024-01-07T14:45:04;21.90;1.00
12922;DHT22;6528;48.086;16.282;2024-01-07T14:47:32;21.90;1.00
12922;DHT22;6528;48.086;16.282;2024-01-07T14:49:59;21.90;1.00
12922;DHT22;6528;48.086;16.282;2024-01-07T14:52:26;21.90;1.00
12922;DHT22;6528;48.086;16.282;2024-01-07T14:54:54;21.90;1.00
12922;DHT22;6528;48.086;16.282;2024-01-07T14:57:21;21.90;1.00
12922;DHT22;6528;48.086;16.282;2024-01-07T14:59:49;21.90;1.00
12922;DHT22;6528;48.086;16.282;2024-01-07T15:02:16;21.90;1.00
12922;DHT22;6528;48.086;16.282;2024-01-07T15:04:43;21.90;1.00
12922;DHT22;6528;48.086;16.282;2024-01-07T15:07:11;21.90;1.00
12922;DHT22;6528;48.086;16.282;2024-01-07T15:09:38;21.90;1.00
12922;DHT22;6528;48.086;16.282;2024-01-07T15:12:08;21.90;1.00
12922;DHT22;6528;48.086;16.282;2024-01-07T15:14:35;21.90;1.00
12922;DHT22;6528;48.086;16.282;2024-01-07T15:17:03;21.90;1.00
12922;DHT22;6528;48.086;16.282;2024-01-07T15:19:30;21.90;1.00
12922;DHT22;6528;48.086;16.282;2024-01-07T15:21:58;21.90;1.00
12922;DHT22;6528;48.086;16.282;2024-01-07T15:24:25;21.90;1.00
12922;DHT22;6528;48.086;16.282;2024-01-07T15:26:52;22.00;1.00
12922;DHT22;6528;48.086;16.282;2024-01-07T15:29:19;21.90;1.00
12922;DHT22;6528;48.086;16.282;2024-01-07T15:31:46;21.90;1.00
12922;DHT22;6528;48.086;16.282;2024-01-07T15:34:13;21.90;1.00
12922;DHT22;6528;48.086;16.282;2024-01-07T15:36:40;21.90;1.00
12922;DHT22;6528;48.086;16.282;2024-01-07T15:39:08;21.90;1.00
12922;DHT22;6528;48.086;16.282;2024-01-07T15:41:36;21.90;1.00
12922;DHT22;6528;48.086;16.282;2024-01-07T15:44:04;21.90;1.00
12922;DHT22;6528;48.086;16.282;2024-01-07T15:46:31;21.90;99.90
12922;DHT22;6528;48.086;16.282;2024-01-07T15:48:58;21.90;1.00
12922;DHT22;6528;48.086;16.282;2024-01-07T15:51:26;21.90;1.00
12922;DHT22;6528;48.086;16.282;2024-01-07T15:53:53;21.90;1.00
12922;DHT22;6528;48.086;16.282;2024-01-07T15:56:21;21.90;1.00